This is the latest recevied weather packets stored in our database for station/object IZ1RFL-3. If no packets are shown the sender has not sent any weather packets the latest 10 day(s).
| Time | Temp. | Humidity | Pressure | Rain* | Wind** | Luminosity | Snow |
|---|---|---|---|---|---|---|---|
| 1788505052 | 25.56° C | 46% | 1021 hPa | - | - | - | - |
| 1788504152 | 25° C | 48% | 1020.9 hPa | - | - | - | - |
| 1788503252 | 25.56° C | 48% | 1021 hPa | - | - | - | - |
| 1788502352 | 24.44° C | 51% | 1020.8 hPa | - | - | - | - |
| 1788501452 | 23.89° C | 54% | 1020.6 hPa | - | - | - | - |
| 1788500552 | 23.33° C | 56% | 1020.5 hPa | - | - | - | - |
| 1788499652 | 21.67° C | 60% | 1020.3 hPa | - | - | - | - |
| 1788498752 | 22.22° C | 58% | 1020.3 hPa | - | - | - | - |
| 1788475311 | 25.56° C | 49% | 1019.9 hPa | - | - | - | - |
| 1788474411 | 25.56° C | 49% | 1020 hPa | - | - | - | - |
| 1788473511 | 26.11° C | 47% | 1019.8 hPa | - | - | - | - |
| 1788472611 | 25.56° C | 50% | 1019.8 hPa | - | - | - | - |
| 1788471710 | 27.22° C | 44% | 1019.6 hPa | - | - | - | - |
| 1788470811 | 27.22° C | 47% | 1019.6 hPa | - | - | - | - |
| 1788469910 | 27.22° C | 47% | 1019.7 hPa | - | - | - | - |
| 1788469011 | 28.33° C | 45% | 1019.8 hPa | - | - | - | - |
| 1788468110 | 28.33° C | 45% | 1019.7 hPa | - | - | - | - |
| 1788467210 | 28.33° C | 45% | 1019.6 hPa | - | - | - | - |
| 1788466311 | 28.89° C | 45% | 1019.6 hPa | - | - | - | - |
| 1788465410 | 28.89° C | 44% | 1019.6 hPa | - | - | - | - |
| 1788464510 | 28.89° C | 43% | 1019.5 hPa | - | - | - | - |
| 1788463610 | 29.44° C | 41% | 1019.5 hPa | - | - | - | - |
| 1788462710 | 30° C | 38% | 1019.4 hPa | - | - | - | - |
| 1788461810 | 30° C | 32% | 1019.1 hPa | - | - | - | - |
| 1788460920 | 31.11° C | 30% | 1018.9 hPa | - | - | - | - |
* Rain since midnight (hover to see other rain measurements)
** Current wind speed in m/s (hover to see current wind gust speed)